Time;durP1;ratioP1;P1;durP2;ratioP2;P2;SDS_P1;SDS_P2;PMS_P1;PMS_P2;Temp;Humidity;BMP_temperature;BMP_pressure;BME280_temperature;BME280_humidity;BME280_pressure;Samples;Min_cycle;Max_cycle;Signal;HPM_P1;HPM_P2
2021/11/21 00:02:27;;;;;;;14.25;7.18;;;;;;;;;;5005443;28;20025;-59
2021/11/21 00:04:56;;;;;;;15.00;7.30;;;;;;;;;;5016690;28;20033;-59
2021/11/21 00:07:26;;;;;;;22.20;7.45;;;;;;;;;;5021346;28;20167;-58
2021/11/21 00:09:55;;;;;;;11.90;6.50;;;;;;;;;;5014552;28;20030;-59
2021/11/21 00:12:23;;;;;;;16.88;6.80;;;;;;;;;;5014884;28;20041;-60
2021/11/21 00:14:51;;;;;;;21.63;6.18;;;;;;;;;;5016140;28;20078;-60
2021/11/21 00:17:19;;;;;;;13.73;6.43;;;;;;;;;;5017330;28;20033;-59
2021/11/21 00:19:45;;;;;;;14.00;6.50;;;;;;;;;;5017010;28;20721;-60
2021/11/21 00:22:13;;;;;;;13.43;6.45;;;;;;;;;;5000340;28;20040;-59
2021/11/21 00:24:43;;;;;;;14.77;6.93;;;;;;;;;;5016630;28;22004;-60
2021/11/21 00:27:09;;;;;;;14.20;6.00;;;;;;;;;;5016896;28;20033;-60
2021/11/21 00:29:39;;;;;;;12.32;6.30;;;;;;;;;;5017979;28;20029;-60
2021/11/21 00:32:05;;;;;;;18.02;7.10;;;;;;;;;;5016888;28;20018;-60
2021/11/21 00:34:33;;;;;;;15.68;6.50;;;;;;;;;;5015784;28;20642;-60
2021/11/21 00:36:58;;;;;;;12.57;6.78;;;;;;;;;;5018265;28;20045;-59
2021/11/21 00:39:26;;;;;;;9.52;5.85;;;;;;;;;;5015322;28;20077;-60
2021/11/21 00:41:52;;;;;;;17.50;6.13;;;;;;;;;;5016258;28;20079;-59
2021/11/21 00:44:19;;;;;;;10.35;5.65;;;;;;;;;;5018887;28;20043;-59
2021/11/21 00:46:44;;;;;;;9.15;5.47;;;;;;;;;;5014787;28;20029;-59
2021/11/21 00:49:15;;;;;;;16.45;6.00;;;;;;;;;;5005082;28;20392;-59
2021/11/21 00:51:43;;;;;;;19.13;5.50;;;;;;;;;;5012185;28;20056;-59
2021/11/21 00:54:22;;;;;;;13.93;6.25;;;;;;;;;;5016697;28;20045;-58
2021/11/21 00:56:47;;;;;;;14.07;5.43;;;;;;;;;;5018340;28;20036;-59
2021/11/21 00:59:19;;;;;;;12.65;5.13;;;;;;;;;;5015939;28;20112;-59
2021/11/21 01:01:50;;;;;;;13.07;6.38;;;;;;;;;;5014250;28;20060;-61
2021/11/21 01:04:17;;;;;;;18.80;5.95;;;;;;;;;;5030491;28;20031;-60
2021/11/21 01:06:45;;;;;;;23.13;5.50;;;;;;;;;;5013090;28;20524;-59
2021/11/21 01:09:13;;;;;;;19.02;5.82;;;;;;;;;;5016152;28;20787;-59
2021/11/21 01:11:42;;;;;;;9.48;5.57;;;;;;;;;;5016034;28;20103;-59
2021/11/21 01:14:10;;;;;;;9.77;5.68;;;;;;;;;;5031310;28;20033;-59
2021/11/21 01:16:41;;;;;;;9.70;5.60;;;;;;;;;;5015083;28;20037;-59
2021/11/21 01:19:11;;;;;;;9.48;4.75;;;;;;;;;;5019595;28;20423;-60
2021/11/21 01:21:36;;;;;;;12.93;5.35;;;;;;;;;;5013922;28;20042;-59
2021/11/21 01:24:07;;;;;;;11.52;5.07;;;;;;;;;;5003016;28;20029;-59
2021/11/21 01:26:33;;;;;;;10.80;4.60;;;;;;;;;;5014805;28;20170;-59
2021/11/21 01:29:01;;;;;;;13.02;4.43;;;;;;;;;;5012598;28;20200;-58
2021/11/21 01:31:29;;;;;;;8.90;4.40;;;;;;;;;;5014842;28;20108;-59
2021/11/21 01:33:57;;;;;;;6.53;4.05;;;;;;;;;;5013343;28;20028;-62
2021/11/21 01:36:25;;;;;;;7.70;4.00;;;;;;;;;;5013901;28;20128;-58
2021/11/21 01:38:51;;;;;;;21.80;3.65;;;;;;;;;;4986490;28;20121;-59
2021/11/21 01:41:19;;;;;;;6.00;3.15;;;;;;;;;;5013093;28;20033;-62
2021/11/21 01:43:47;;;;;;;5.05;3.20;;;;;;;;;;5023683;28;20040;-59
2021/11/21 01:46:15;;;;;;;8.63;3.33;;;;;;;;;;4995154;28;21097;-60
2021/11/21 01:48:40;;;;;;;4.32;2.58;;;;;;;;;;5015718;28;20029;-59
2021/11/21 01:51:07;;;;;;;4.25;2.55;;;;;;;;;;5014586;28;20037;-59
2021/11/21 01:53:36;;;;;;;6.15;1.67;;;;;;;;;;5010131;28;20041;-59
2021/11/21 01:56:02;;;;;;;3.03;1.52;;;;;;;;;;5001349;28;20021;-59
2021/11/21 01:58:30;;;;;;;2.85;1.42;;;;;;;;;;5015120;28;20033;-59
2021/11/21 02:00:56;;;;;;;3.33;1.35;;;;;;;;;;5014700;28;20033;-59
2021/11/21 02:03:25;;;;;;;6.82;1.13;;;;;;;;;;5016642;28;20069;-60
2021/11/21 02:05:55;;;;;;;7.40;1.42;;;;;;;;;;5014267;28;20547;-58
2021/11/21 02:08:23;;;;;;;9.80;1.52;;;;;;;;;;5013505;28;20083;-59
2021/11/21 02:10:57;;;;;;;6.85;1.40;;;;;;;;;;5015719;28;20025;-59
2021/11/21 02:13:25;;;;;;;10.40;1.42;;;;;;;;;;5015371;28;20171;-59
2021/11/21 02:15:52;;;;;;;2.17;1.20;;;;;;;;;;5020323;28;20544;-59
2021/11/21 02:18:20;;;;;;;5.35;1.30;;;;;;;;;;5002394;28;20033;-58
2021/11/21 02:20:50;;;;;;;4.72;1.38;;;;;;;;;;5015080;28;20033;-59
2021/11/21 02:23:18;;;;;;;4.07;1.20;;;;;;;;;;5003138;28;20725;-59
2021/11/21 02:25:44;;;;;;;9.88;1.63;;;;;;;;;;5013841;28;20128;-59
2021/11/21 02:28:10;;;;;;;2.45;0.63;;;;;;;;;;5016143;28;20901;-61
2021/11/21 02:30:40;;;;;;;7.22;0.70;;;;;;;;;;5014989;28;20404;-59
2021/11/21 02:33:13;;;;;;;7.40;1.70;;;;;;;;;;5014678;28;20041;-59
2021/11/21 02:35:44;;;;;;;12.45;1.83;;;;;;;;;;5012039;28;20086;-58
2021/11/21 02:38:12;;;;;;;9.77;1.15;;;;;;;;;;5012836;28;20671;-59
2021/11/21 02:40:40;;;;;;;7.90;0.70;;;;;;;;;;5010109;28;20034;-59
2021/11/21 02:43:08;;;;;;;6.82;0.80;;;;;;;;;;5014281;28;20048;-59
2021/11/21 02:45:33;;;;;;;5.68;0.60;;;;;;;;;;4994152;28;20024;-59
2021/11/21 02:47:59;;;;;;;6.13;1.02;;;;;;;;;;5012841;28;20044;-59
2021/11/21 02:50:29;;;;;;;16.42;1.27;;;;;;;;;;5000135;28;20025;-58
2021/11/21 02:52:58;;;;;;;10.63;0.93;;;;;;;;;;5002155;28;21621;-59
2021/11/21 02:55:28;;;;;;;9.35;0.60;;;;;;;;;;5006401;28;20423;-58
2021/11/21 02:57:54;;;;;;;7.07;0.82;;;;;;;;;;5013625;28;20056;-60
2021/11/21 03:00:22;;;;;;;4.72;0.68;;;;;;;;;;5014064;28;20784;-59
2021/11/21 03:02:50;;;;;;;7.18;0.70;;;;;;;;;;5019915;28;20041;-59
2021/11/21 03:05:20;;;;;;;10.68;0.70;;;;;;;;;;5012146;28;20037;-59
2021/11/21 03:07:49;;;;;;;3.90;0.70;;;;;;;;;;5015071;28;20520;-60
2021/11/21 03:10:21;;;;;;;5.68;0.70;;;;;;;;;;5012761;28;20145;-59
2021/11/21 03:13:00;;;;;;;6.82;0.80;;;;;;;;;;5013071;28;20110;-59
2021/11/21 03:15:26;;;;;;;11.63;0.80;;;;;;;;;;5013903;28;20026;-59
2021/11/21 03:17:52;;;;;;;6.93;0.60;;;;;;;;;;5013942;28;20025;-59
2021/11/21 03:20:21;;;;;;;9.02;0.85;;;;;;;;;;5014438;28;20033;-60
2021/11/21 03:22:48;;;;;;;13.55;1.13;;;;;;;;;;5020257;28;20034;-58
2021/11/21 03:25:17;;;;;;;8.48;0.73;;;;;;;;;;5013204;28;20041;-60
2021/11/21 03:27:42;;;;;;;7.25;0.70;;;;;;;;;;5013004;28;21744;-59
2021/11/21 03:30:10;;;;;;;4.35;0.68;;;;;;;;;;5012716;28;20668;-61
2021/11/21 03:32:35;;;;;;;7.57;0.88;;;;;;;;;;5020926;28;20028;-61
2021/11/21 03:35:04;;;;;;;8.35;1.05;;;;;;;;;;5027239;28;20064;-59
2021/11/21 03:37:32;;;;;;;9.00;1.08;;;;;;;;;;5014037;28;20026;-59
2021/11/21 03:39:57;;;;;;;5.38;0.90;;;;;;;;;;5008286;28;20122;-60
2021/11/21 03:42:28;;;;;;;10.77;1.23;;;;;;;;;;5012059;28;20037;-59
2021/11/21 03:44:58;;;;;;;9.82;0.98;;;;;;;;;;5012734;28;20026;-59
2021/11/21 03:47:26;;;;;;;4.07;0.98;;;;;;;;;;5014908;28;20255;-59
2021/11/21 03:49:51;;;;;;;5.05;0.47;;;;;;;;;;5015261;28;20048;-59
2021/11/21 03:52:19;;;;;;;6.57;0.85;;;;;;;;;;5005978;28;20084;-59
2021/11/21 03:54:45;;;;;;;10.05;0.68;;;;;;;;;;5016709;28;20028;-58
2021/11/21 03:57:13;;;;;;;7.10;0.93;;;;;;;;;;5015038;28;20033;-58
2021/11/21 03:59:39;;;;;;;6.82;0.57;;;;;;;;;;5014183;28;20040;-58
2021/11/21 04:02:08;;;;;;;12.93;0.65;;;;;;;;;;5016824;28;20037;-58
2021/11/21 04:04:34;;;;;;;7.50;0.60;;;;;;;;;;5015572;28;20028;-60
2021/11/21 04:07:04;;;;;;;2.05;0.38;;;;;;;;;;5015214;28;20082;-60
2021/11/21 04:09:34;;;;;;;4.78;0.40;;;;;;;;;;4999888;28;20037;-59
2021/11/21 04:12:05;;;;;;;9.88;0.98;;;;;;;;;;5016088;28;20575;-59
2021/11/21 04:14:30;;;;;;;14.07;1.08;;;;;;;;;;5012208;28;20111;-59
2021/11/21 04:16:56;;;;;;;1.80;0.70;;;;;;;;;;5014893;28;20040;-60
2021/11/21 04:19:26;;;;;;;17.10;0.93;;;;;;;;;;5014616;28;20037;-61
2021/11/21 04:21:52;;;;;;;6.22;0.90;;;;;;;;;;5014928;28;20105;-59
2021/11/21 04:24:19;;;;;;;9.00;1.00;;;;;;;;;;5012676;28;20468;-58
2021/11/21 04:26:49;;;;;;;8.23;1.15;;;;;;;;;;5010052;28;20032;-60
2021/11/21 04:29:22;;;;;;;14.52;1.13;;;;;;;;;;5020553;28;20037;-60
2021/11/21 04:31:50;;;;;;;17.70;1.27;;;;;;;;;;5013005;28;20034;-59
2021/11/21 04:34:23;;;;;;;20.95;2.00;;;;;;;;;;5015432;28;20032;-60
2021/11/21 04:36:54;;;;;;;7.20;0.93;;;;;;;;;;5019635;28;20021;-60
2021/11/21 04:39:19;;;;;;;4.90;0.75;;;;;;;;;;5013748;28;20040;-61
2021/11/21 04:41:49;;;;;;;8.27;1.58;;;;;;;;;;5014484;28;20396;-60
2021/11/21 04:44:15;;;;;;;17.80;2.20;;;;;;;;;;5013455;28;20831;-59
2021/11/21 04:46:40;;;;;;;2.40;0.52;;;;;;;;;;4994722;28;20078;-59
2021/11/21 04:49:05;;;;;;;8.75;1.00;;;;;;;;;;5010984;28;20025;-60
2021/11/21 04:51:33;;;;;;;16.45;1.20;;;;;;;;;;5013691;28;20025;-59
2021/11/21 04:54:09;;;;;;;19.70;1.05;;;;;;;;;;5018403;28;20045;-59
2021/11/21 04:56:40;;;;;;;14.00;0.90;;;;;;;;;;5016183;28;20116;-59
2021/11/21 04:59:05;;;;;;;8.18;1.70;;;;;;;;;;5029364;28;20406;-60
2021/11/21 05:01:31;;;;;;;17.85;1.73;;;;;;;;;;5005917;28;20575;-59
2021/11/21 05:03:59;;;;;;;12.40;1.63;;;;;;;;;;5013577;28;20041;-61
2021/11/21 05:06:25;;;;;;;4.93;1.00;;;;;;;;;;5014669;28;20061;-61
2021/11/21 05:08:50;;;;;;;15.52;2.83;;;;;;;;;;4998840;28;20028;-62
2021/11/21 05:11:18;;;;;;;13.80;1.35;;;;;;;;;;5011415;28;20037;-61
2021/11/21 05:13:49;;;;;;;14.70;1.55;;;;;;;;;;5015827;28;20656;-60
2021/11/21 05:16:16;;;;;;;6.53;1.33;;;;;;;;;;5020660;28;20127;-60
2021/11/21 05:18:44;;;;;;;21.08;1.48;;;;;;;;;;4999808;28;20369;-60
2021/11/21 05:21:12;;;;;;;7.75;1.00;;;;;;;;;;4999672;28;20037;-59
2021/11/21 05:23:42;;;;;;;11.55;1.23;;;;;;;;;;5021482;28;20041;-61
2021/11/21 05:26:10;;;;;;;6.55;0.90;;;;;;;;;;5017012;28;21004;-59
2021/11/21 05:28:40;;;;;;;9.70;1.30;;;;;;;;;;5021451;28;20388;-60
2021/11/21 05:31:07;;;;;;;10.32;1.30;;;;;;;;;;4997889;28;20037;-61
2021/11/21 05:33:33;;;;;;;20.10;1.98;;;;;;;;;;5000795;28;20067;-61
2021/11/21 05:36:03;;;;;;;19.50;1.45;;;;;;;;;;5014407;28;20037;-61
2021/11/21 05:38:28;;;;;;;22.92;1.95;;;;;;;;;;4999320;28;20045;-61
2021/11/21 05:40:53;;;;;;;11.73;1.90;;;;;;;;;;5012847;28;20037;-60
2021/11/21 05:43:19;;;;;;;9.05;1.40;;;;;;;;;;5020788;28;20033;-59
2021/11/21 05:45:49;;;;;;;11.82;1.30;;;;;;;;;;5013602;28;20979;-60
2021/11/21 05:48:15;;;;;;;12.48;1.35;;;;;;;;;;5015254;28;20032;-60
2021/11/21 05:50:42;;;;;;;7.03;1.00;;;;;;;;;;5016745;28;20025;-60
2021/11/21 05:53:09;;;;;;;9.85;1.42;;;;;;;;;;5013795;28;20057;-60
2021/11/21 05:55:38;;;;;;;24.50;1.10;;;;;;;;;;5014542;28;20442;-60
2021/11/21 05:58:08;;;;;;;7.75;0.60;;;;;;;;;;5004993;28;22019;-61
2021/11/21 06:00:33;;;;;;;10.93;1.00;;;;;;;;;;5012789;28;20033;-61
2021/11/21 06:02:59;;;;;;;10.60;1.27;;;;;;;;;;5013130;28;20041;-60
2021/11/21 06:05:27;;;;;;;5.95;0.68;;;;;;;;;;5003054;28;20107;-61
2021/11/21 06:07:58;;;;;;;15.27;1.70;;;;;;;;;;5015122;28;20047;-59
2021/11/21 06:10:24;;;;;;;20.67;1.45;;;;;;;;;;5014479;28;20169;-61
2021/11/21 06:12:52;;;;;;;11.27;1.00;;;;;;;;;;5015637;28;21928;-59
2021/11/21 06:15:17;;;;;;;12.32;1.27;;;;;;;;;;5014273;28;20091;-60
2021/11/21 06:17:45;;;;;;;8.57;1.20;;;;;;;;;;5001259;28;20033;-62
2021/11/21 06:20:11;;;;;;;10.80;1.08;;;;;;;;;;5017310;28;20033;-60
2021/11/21 06:22:42;;;;;;;11.60;0.95;;;;;;;;;;5011923;28;20029;-60
2021/11/21 06:25:10;;;;;;;6.95;1.00;;;;;;;;;;5014251;28;20033;-59
2021/11/21 06:27:36;;;;;;;11.00;1.00;;;;;;;;;;5011900;28;20064;-60
2021/11/21 06:30:05;;;;;;;9.13;0.95;;;;;;;;;;5019381;28;20128;-61
2021/11/21 06:32:31;;;;;;;14.55;1.38;;;;;;;;;;5012292;28;20026;-60
2021/11/21 06:34:56;;;;;;;7.53;0.88;;;;;;;;;;5014221;28;20048;-59
2021/11/21 06:37:22;;;;;;;18.63;1.33;;;;;;;;;;5012786;28;20013;-60
2021/11/21 06:39:47;;;;;;;11.85;1.25;;;;;;;;;;5016217;28;20036;-60
2021/11/21 06:42:13;;;;;;;3.53;0.60;;;;;;;;;;5015230;28;20112;-60
2021/11/21 06:44:41;;;;;;;30.42;1.80;;;;;;;;;;5026635;28;20029;-61
2021/11/21 06:47:10;;;;;;;6.35;1.55;;;;;;;;;;5010578;28;20033;-62
2021/11/21 06:49:35;;;;;;;15.52;1.67;;;;;;;;;;5018797;28;20116;-61
2021/11/21 06:52:04;;;;;;;14.52;0.93;;;;;;;;;;5013205;28;20037;-59
2021/11/21 06:54:31;;;;;;;17.73;1.15;;;;;;;;;;4998506;28;20037;-60
2021/11/21 06:56:57;;;;;;;13.63;0.93;;;;;;;;;;5013724;28;20791;-60
2021/11/21 06:59:25;;;;;;;12.52;1.40;;;;;;;;;;5012691;28;20033;-60
2021/11/21 07:01:53;;;;;;;14.30;0.95;;;;;;;;;;5014702;28;20079;-61
2021/11/21 07:04:18;;;;;;;5.78;0.70;;;;;;;;;;5018423;28;20021;-61
2021/11/21 07:06:46;;;;;;;8.48;0.95;;;;;;;;;;5013797;28;20025;-60
2021/11/21 07:09:17;;;;;;;14.32;1.00;;;;;;;;;;5014663;28;20431;-61
2021/11/21 07:11:45;;;;;;;14.98;1.35;;;;;;;;;;5015106;28;20032;-61
2021/11/21 07:14:11;;;;;;;6.93;1.02;;;;;;;;;;5014025;28;20037;-62
2021/11/21 07:16:37;;;;;;;19.30;1.33;;;;;;;;;;5001843;28;20190;-62
2021/11/21 07:19:03;;;;;;;10.27;1.25;;;;;;;;;;5012842;28;21587;-63
2021/11/21 07:21:34;;;;;;;7.75;1.10;;;;;;;;;;5001505;28;20044;-61
2021/11/21 07:23:59;;;;;;;7.18;0.85;;;;;;;;;;5004131;28;20081;-62
2021/11/21 07:26:25;;;;;;;14.00;1.08;;;;;;;;;;5012940;28;20095;-61
2021/11/21 07:28:53;;;;;;;8.68;1.10;;;;;;;;;;5018085;28;20051;-60
2021/11/21 07:31:21;;;;;;;13.63;1.10;;;;;;;;;;5000008;28;20029;-60
2021/11/21 07:33:46;;;;;;;7.32;0.93;;;;;;;;;;5022461;28;20173;-61
2021/11/21 07:36:12;;;;;;;5.00;1.13;;;;;;;;;;5015028;28;20029;-60
2021/11/21 07:38:40;;;;;;;13.50;1.27;;;;;;;;;;4993916;28;20041;-61
2021/11/21 07:41:27;;;;;;;9.50;1.50;;;;;;;;;;4989424;28;20095;-61
2021/11/21 07:43:55;;;;;;;11.02;1.40;;;;;;;;;;5023314;28;20045;-62
2021/11/21 07:46:26;;;;;;;14.18;1.27;;;;;;;;;;5013924;28;20492;-60
2021/11/21 07:48:52;;;;;;;6.65;1.13;;;;;;;;;;5014453;28;20030;-61
2021/11/21 07:51:20;;;;;;;13.15;1.48;;;;;;;;;;5003896;28;20495;-61
2021/11/21 07:53:45;;;;;;;8.10;0.98;;;;;;;;;;5018449;28;20037;-61
2021/11/21 07:56:11;;;;;;;18.55;1.38;;;;;;;;;;5016647;28;20514;-60
2021/11/21 07:58:39;;;;;;;10.65;1.52;;;;;;;;;;5015178;28;20846;-62
2021/11/21 08:01:07;;;;;;;14.82;1.67;;;;;;;;;;5016304;28;20035;-62
2021/11/21 08:03:32;;;;;;;6.60;1.10;;;;;;;;;;5013134;28;20071;-62
2021/11/21 08:05:58;;;;;;;9.55;1.30;;;;;;;;;;5002700;28;20032;-59
2021/11/21 08:08:23;;;;;;;6.72;1.65;;;;;;;;;;5017115;28;20053;-60
2021/11/21 08:10:49;;;;;;;5.55;1.00;;;;;;;;;;5015266;28;20044;-60
2021/11/21 08:13:15;;;;;;;20.55;1.20;;;;;;;;;;5017972;28;21035;-60
2021/11/21 08:15:40;;;;;;;13.77;1.73;;;;;;;;;;5019117;28;20623;-60
2021/11/21 08:18:10;;;;;;;21.15;1.65;;;;;;;;;;5016900;28;20116;-59
2021/11/21 08:20:35;;;;;;;7.47;1.13;;;;;;;;;;4985590;28;20037;-59
2021/11/21 08:23:01;;;;;;;12.50;1.23;;;;;;;;;;5031966;28;20041;-60
2021/11/21 08:25:27;;;;;;;7.32;1.02;;;;;;;;;;5032362;28;20103;-60
2021/11/21 08:27:53;;;;;;;9.15;1.25;;;;;;;;;;5014596;28;20040;-60
2021/11/21 08:30:19;;;;;;;7.88;0.73;;;;;;;;;;5017422;28;20033;-59
2021/11/21 08:32:50;;;;;;;8.23;1.25;;;;;;;;;;5008213;28;20033;-60
2021/11/21 08:35:18;;;;;;;7.22;1.63;;;;;;;;;;5018791;28;20034;-59
2021/11/21 08:37:43;;;;;;;13.82;1.10;;;;;;;;;;5011673;28;20071;-60
2021/11/21 08:40:10;;;;;;;14.25;1.45;;;;;;;;;;5027488;28;20123;-61
2021/11/21 08:42:36;;;;;;;10.00;1.25;;;;;;;;;;5000790;28;20053;-60
2021/11/21 08:45:03;;;;;;;5.05;0.98;;;;;;;;;;5017214;28;20076;-61
2021/11/21 08:47:28;;;;;;;8.38;1.10;;;;;;;;;;5015200;28;20061;-60
2021/11/21 08:49:56;;;;;;;5.25;1.27;;;;;;;;;;5000547;28;21009;-60
2021/11/21 08:52:24;;;;;;;24.60;1.45;;;;;;;;;;5018379;28;20049;-61
2021/11/21 08:54:50;;;;;;;14.48;1.33;;;;;;;;;;5016720;28;20045;-60
2021/11/21 08:57:17;;;;;;;8.95;1.05;;;;;;;;;;5014010;28;20036;-60
2021/11/21 08:59:45;;;;;;;5.30;0.93;;;;;;;;;;4994726;28;20483;-60
2021/11/21 09:02:10;;;;;;;4.30;0.88;;;;;;;;;;5015688;28;20029;-60
2021/11/21 09:04:39;;;;;;;13.07;1.02;;;;;;;;;;5020644;28;20035;-62
2021/11/21 09:07:04;;;;;;;8.30;1.40;;;;;;;;;;5003575;28;22418;-61
2021/11/21 09:09:32;;;;;;;12.95;1.67;;;;;;;;;;5013833;28;20029;-61
2021/11/21 09:12:00;;;;;;;12.27;1.67;;;;;;;;;;5029488;28;20070;-60
2021/11/21 09:14:28;;;;;;;15.25;1.20;;;;;;;;;;5002643;28;20064;-59
2021/11/21 09:16:54;;;;;;;5.60;1.52;;;;;;;;;;5015316;28;20042;-61
2021/11/21 09:19:24;;;;;;;12.68;1.05;;;;;;;;;;5017516;28;20079;-59
2021/11/21 09:21:53;;;;;;;7.53;1.23;;;;;;;;;;5017719;28;20062;-60
2021/11/21 09:24:21;;;;;;;4.70;0.90;;;;;;;;;;5016597;28;20041;-60
2021/11/21 09:26:49;;;;;;;14.48;1.35;;;;;;;;;;5012152;28;20111;-60
2021/11/21 09:29:16;;;;;;;14.68;0.93;;;;;;;;;;5013765;28;20033;-59
2021/11/21 09:31:44;;;;;;;14.10;1.92;;;;;;;;;;5002875;28;20039;-60
2021/11/21 09:34:10;;;;;;;6.90;0.90;;;;;;;;;;4999727;28;20025;-60
2021/11/21 09:36:37;;;;;;;7.35;1.30;;;;;;;;;;4998504;28;20607;-60
2021/11/21 09:39:06;;;;;;;11.13;1.02;;;;;;;;;;5013075;28;20072;-61
2021/11/21 09:41:32;;;;;;;6.90;1.02;;;;;;;;;;5019516;28;20140;-61
2021/11/21 09:43:59;;;;;;;9.57;1.13;;;;;;;;;;5012195;28;20717;-60
2021/11/21 09:46:27;;;;;;;5.78;0.93;;;;;;;;;;4998604;28;20052;-60
2021/11/21 09:48:55;;;;;;;5.78;0.77;;;;;;;;;;5019754;28;20025;-62
2021/11/21 09:51:21;;;;;;;14.82;1.52;;;;;;;;;;5011815;28;20064;-61
2021/11/21 09:53:47;;;;;;;8.70;1.83;;;;;;;;;;5012929;28;20977;-60
2021/11/21 09:56:16;;;;;;;9.02;1.08;;;;;;;;;;5012777;28;20045;-61
2021/11/21 09:58:42;;;;;;;6.60;0.85;;;;;;;;;;5029409;28;20029;-59
2021/11/21 10:01:28;;;;;;;4.20;0.80;;;;;;;;;;5009393;28;20025;-61
2021/11/21 10:03:56;;;;;;;3.63;0.98;;;;;;;;;;5013438;28;20038;-60
2021/11/21 10:06:35;;;;;;;7.75;0.90;;;;;;;;;;5012289;28;20167;-59
2021/11/21 10:09:03;;;;;;;1.95;0.80;;;;;;;;;;5012197;28;20038;-61
2021/11/21 10:11:31;;;;;;;7.32;1.13;;;;;;;;;;5012622;28;20025;-60
2021/11/21 10:14:04;;;;;;;5.13;1.05;;;;;;;;;;5012124;28;20142;-61
2021/11/21 10:16:35;;;;;;;14.38;1.23;;;;;;;;;;5012750;28;20065;-61
2021/11/21 10:19:04;;;;;;;10.02;0.98;;;;;;;;;;5010687;28;20545;-61
2021/11/21 10:21:32;;;;;;;9.43;1.00;;;;;;;;;;5012197;28;20064;-60
2021/11/21 10:24:23;;;;;;;5.30;1.10;;;;;;;;;;5019652;28;20040;-59
2021/11/21 10:27:03;;;;;;;6.00;1.08;;;;;;;;;;5014905;28;21823;-60
2021/11/21 10:29:33;;;;;;;7.38;1.08;;;;;;;;;;5029444;28;20124;-60
2021/11/21 10:32:11;;;;;;;6.80;1.20;;;;;;;;;;5002697;28;20769;-61
2021/11/21 10:34:45;;;;;;;6.22;0.63;;;;;;;;;;5017115;28;20025;-60
2021/11/21 10:37:13;;;;;;;6.00;1.15;;;;;;;;;;5016276;28;20102;-59
2021/11/21 10:39:44;;;;;;;5.85;0.73;;;;;;;;;;5018192;28;20599;-61
2021/11/21 10:42:10;;;;;;;7.78;0.85;;;;;;;;;;5022831;28;20060;-60
2021/11/21 10:44:47;;;;;;;4.07;0.38;;;;;;;;;;4989650;28;20044;-61
2021/11/21 10:47:14;;;;;;;6.45;0.77;;;;;;;;;;5014387;28;20033;-61
2021/11/21 10:49:43;;;;;;;5.15;0.90;;;;;;;;;;5015861;28;20018;-63
2021/11/21 10:52:14;;;;;;;6.25;0.82;;;;;;;;;;5014437;28;20056;-60
2021/11/21 10:54:46;;;;;;;8.10;0.80;;;;;;;;;;5014988;28;20091;-59
2021/11/21 10:57:18;;;;;;;5.25;0.50;;;;;;;;;;5015623;28;20076;-60
2021/11/21 10:59:52;;;;;;;3.97;0.43;;;;;;;;;;5019598;28;20547;-60
2021/11/21 11:02:18;;;;;;;10.60;1.42;;;;;;;;;;5015499;28;20503;-60
2021/11/21 11:05:02;;;;;;;3.53;0.40;;;;;;;;;;5013926;28;20083;-59
2021/11/21 11:07:34;;;;;;;4.53;0.63;;;;;;;;;;5024782;28;20171;-60
2021/11/21 11:09:59;;;;;;;3.95;0.47;;;;;;;;;;5011882;28;20044;-59
2021/11/21 11:16:01;;;;;;;4.57;0.60;;;;;;;;;;5015786;28;20035;-59
2021/11/21 11:18:28;;;;;;;4.90;0.93;;;;;;;;;;5023109;28;20136;-60
2021/11/21 11:20:57;;;;;;;3.42;0.63;;;;;;;;;;5015692;28;20116;-60
2021/11/21 11:23:22;;;;;;;10.88;0.93;;;;;;;;;;5017373;28;20029;-62
2021/11/21 11:25:49;;;;;;;3.95;0.60;;;;;;;;;;5015688;28;20021;-63
2021/11/21 11:28:38;;;;;;;3.60;0.85;;;;;;;;;;5016478;28;20034;-62
2021/11/21 11:31:25;;;;;;;4.07;0.70;;;;;;;;;;5021770;28;20112;-61
2021/11/21 11:33:52;;;;;;;7.25;0.90;;;;;;;;;;5015324;28;22043;-60
2021/11/21 11:36:21;;;;;;;4.47;0.60;;;;;;;;;;5022622;28;20133;-61
2021/11/21 11:39:08;;;;;;;2.85;0.70;;;;;;;;;;5012600;28;20036;-61
2021/11/21 11:41:36;;;;;;;3.83;0.80;;;;;;;;;;5012921;28;20997;-60
2021/11/21 11:44:06;;;;;;;7.95;0.65;;;;;;;;;;5014391;28;20489;-62
2021/11/21 11:46:40;;;;;;;8.15;1.10;;;;;;;;;;5027559;28;20044;-63
2021/11/21 11:49:13;;;;;;;9.77;0.68;;;;;;;;;;5015201;28;20037;-61
2021/11/21 11:51:38;;;;;;;9.45;0.77;;;;;;;;;;5013524;28;20028;-62
2021/11/21 11:54:18;;;;;;;5.47;1.55;;;;;;;;;;5012046;28;20044;-60
2021/11/21 11:56:49;;;;;;;6.70;0.52;;;;;;;;;;5013059;28;20025;-59
2021/11/21 11:59:23;;;;;;;7.43;0.60;;;;;;;;;;5019593;28;20038;-61
2021/11/21 12:01:48;;;;;;;8.40;0.68;;;;;;;;;;5014320;28;20527;-61
2021/11/21 12:04:17;;;;;;;5.10;0.35;;;;;;;;;;5012519;28;20120;-61
2021/11/21 12:06:50;;;;;;;7.85;0.63;;;;;;;;;;5034467;28;20159;-61
2021/11/21 12:09:15;;;;;;;10.40;0.90;;;;;;;;;;5026252;28;20083;-59
2021/11/21 12:12:04;;;;;;;4.55;0.38;;;;;;;;;;5014352;28;20154;-60
2021/11/21 12:14:39;;;;;;;11.75;0.82;;;;;;;;;;5016209;28;20108;-60
2021/11/21 12:17:11;;;;;;;8.02;0.57;;;;;;;;;;5033046;28;20037;-60
2021/11/21 12:19:41;;;;;;;1.75;0.45;;;;;;;;;;5017814;28;20866;-60
2021/11/21 12:25:01;;;;;;;8.60;0.98;;;;;;;;;;5014116;28;20132;-61
2021/11/21 12:27:28;;;;;;;8.10;0.70;;;;;;;;;;5011465;28;20041;-60
2021/11/21 12:30:04;;;;;;;3.95;0.60;;;;;;;;;;5012751;28;20029;-60
2021/11/21 12:32:32;;;;;;;2.15;0.93;;;;;;;;;;5017513;28;20044;-60
2021/11/21 12:34:59;;;;;;;7.63;0.80;;;;;;;;;;5014516;28;20032;-60
2021/11/21 12:37:29;;;;;;;3.25;0.77;;;;;;;;;;5014991;28;20504;-59
2021/11/21 12:39:57;;;;;;;13.00;1.45;;;;;;;;;;5018808;28;20045;-61
2021/11/21 12:42:33;;;;;;;6.22;1.05;;;;;;;;;;5012501;28;20159;-59
2021/11/21 12:45:18;;;;;;;8.60;0.98;;;;;;;;;;4998126;28;20057;-60
2021/11/21 12:47:45;;;;;;;5.20;0.65;;;;;;;;;;5017762;28;20038;-60
2021/11/21 12:50:23;;;;;;;10.15;1.13;;;;;;;;;;5028858;28;20009;-60
2021/11/21 12:52:51;;;;;;;9.10;1.30;;;;;;;;;;5017413;28;20060;-60
2021/11/21 12:55:26;;;;;;;9.20;1.40;;;;;;;;;;5023502;28;20032;-60
2021/11/21 12:57:54;;;;;;;4.18;0.98;;;;;;;;;;5016486;28;20047;-60
2021/11/21 13:00:27;;;;;;;5.93;0.90;;;;;;;;;;5016436;28;20021;-59
2021/11/21 13:02:57;;;;;;;5.38;1.20;;;;;;;;;;5017774;28;20033;-60
2021/11/21 13:05:28;;;;;;;4.93;0.95;;;;;;;;;;5017989;28;20056;-60
2021/11/21 13:07:54;;;;;;;8.73;1.90;;;;;;;;;;5012853;28;20034;-59
2021/11/21 13:10:21;;;;;;;7.80;1.10;;;;;;;;;;5015693;28;20037;-59
2021/11/21 13:12:51;;;;;;;5.43;1.40;;;;;;;;;;5006133;28;20036;-61
2021/11/21 13:15:26;;;;;;;8.50;2.65;;;;;;;;;;5017922;28;20028;-60
2021/11/21 13:18:03;;;;;;;9.80;1.88;;;;;;;;;;5017895;28;20026;-61
2021/11/21 13:20:29;;;;;;;14.85;1.50;;;;;;;;;;5023869;28;20045;-60
2021/11/21 13:23:01;;;;;;;5.90;1.52;;;;;;;;;;5016657;28;20021;-61
2021/11/21 13:25:28;;;;;;;13.63;1.67;;;;;;;;;;5021715;28;20036;-59
2021/11/21 13:28:26;;;;;;;9.98;1.10;;;;;;;;;;5032026;28;20040;-60
2021/11/21 13:31:06;;;;;;;8.88;1.50;;;;;;;;;;5017771;28;20033;-60
2021/11/21 13:33:45;;;;;;;9.48;1.92;;;;;;;;;;5020434;28;20054;-60
2021/11/21 13:36:24;;;;;;;15.80;1.98;;;;;;;;;;5016773;28;20119;-61
2021/11/21 13:39:01;;;;;;;8.05;1.20;;;;;;;;;;5020075;28;20033;-62
2021/11/21 13:41:30;;;;;;;13.45;1.70;;;;;;;;;;5022255;28;22214;-60
2021/11/21 13:44:01;;;;;;;20.58;1.90;;;;;;;;;;4999383;28;20081;-62
2021/11/21 13:46:31;;;;;;;9.70;1.42;;;;;;;;;;5016050;28;20033;-60
2021/11/21 13:49:00;;;;;;;11.20;1.80;;;;;;;;;;5022797;28;20043;-60
2021/11/21 13:51:30;;;;;;;12.30;1.45;;;;;;;;;;5020910;28;20775;-60
2021/11/21 13:53:58;;;;;;;14.65;1.45;;;;;;;;;;5001515;28;20518;-60
2021/11/21 13:56:27;;;;;;;12.07;1.70;;;;;;;;;;5013080;28;20025;-60
2021/11/21 13:59:07;;;;;;;7.18;1.30;;;;;;;;;;5015032;28;20416;-59
2021/11/21 14:02:00;;;;;;;12.48;1.90;;;;;;;;;;5020606;28;20109;-60
2021/11/21 14:04:30;;;;;;;16.55;1.60;;;;;;;;;;4993052;28;20037;-60
2021/11/21 14:07:10;;;;;;;8.45;1.83;;;;;;;;;;5014390;28;20041;-60
2021/11/21 14:09:54;;;;;;;17.73;1.88;;;;;;;;;;5014418;28;20025;-59
2021/11/21 14:12:21;;;;;;;13.18;2.17;;;;;;;;;;5016391;28;21014;-60
2021/11/21 14:15:06;;;;;;;13.88;2.00;;;;;;;;;;5011882;28;20070;-60
2021/11/21 14:17:39;;;;;;;11.88;1.83;;;;;;;;;;5027970;28;20037;-59
2021/11/21 14:20:14;;;;;;;9.93;1.67;;;;;;;;;;5012770;28;20041;-59
2021/11/21 14:23:00;;;;;;;23.17;1.88;;;;;;;;;;5012058;28;20041;-60
2021/11/21 14:25:41;;;;;;;16.05;2.22;;;;;;;;;;5017029;28;20487;-60
2021/11/21 14:28:20;;;;;;;20.77;1.80;;;;;;;;;;4994548;28;20103;-59
2021/11/21 14:31:03;;;;;;;15.15;1.67;;;;;;;;;;5003604;28;20032;-60
2021/11/21 14:33:31;;;;;;;9.60;1.42;;;;;;;;;;4998843;28;20089;-60
2021/11/21 14:36:02;;;;;;;19.83;1.83;;;;;;;;;;5013583;28;20044;-60
2021/11/21 14:38:29;;;;;;;18.23;1.80;;;;;;;;;;5012662;28;20037;-61
2021/11/21 14:41:06;;;;;;;20.52;1.83;;;;;;;;;;5021313;28;20147;-61
2021/11/21 14:43:38;;;;;;;9.35;1.52;;;;;;;;;;5014551;28;20052;-61
2021/11/21 14:46:09;;;;;;;16.70;2.00;;;;;;;;;;5016935;28;20036;-62
2021/11/21 14:48:36;;;;;;;16.83;2.58;;;;;;;;;;5014256;28;20121;-60
2021/11/21 14:51:04;;;;;;;21.98;3.38;;;;;;;;;;5012023;28;22088;-60
2021/11/21 14:53:32;;;;;;;11.77;3.28;;;;;;;;;;5015957;28;20067;-60
2021/11/21 14:56:09;;;;;;;7.68;1.73;;;;;;;;;;5022498;28;20052;-60
2021/11/21 15:02:58;;;;;;;6.78;1.60;;;;;;;;;;5014814;28;20144;-61